sensor_id;sensor_type;location;lat;lon;timestamp;P1;durP1;ratioP1;P2;durP2;ratioP2
71387;SDS011;59201;59.902;10.520;2023-02-28T00:01:22;5.78;;;1.80;;
71387;SDS011;59201;59.902;10.520;2023-02-28T00:03:48;6.93;;;1.80;;
71387;SDS011;59201;59.902;10.520;2023-02-28T00:06:14;5.67;;;1.30;;
71387;SDS011;59201;59.902;10.520;2023-02-28T00:08:40;5.50;;;1.70;;
71387;SDS011;59201;59.902;10.520;2023-02-28T00:11:08;4.90;;;1.35;;
71387;SDS011;59201;59.902;10.520;2023-02-28T00:13:35;5.57;;;1.60;;
71387;SDS011;59201;59.902;10.520;2023-02-28T00:16:03;5.90;;;1.80;;
71387;SDS011;59201;59.902;10.520;2023-02-28T00:18:30;7.43;;;1.90;;
71387;SDS011;59201;59.902;10.520;2023-02-28T00:20:56;5.43;;;1.83;;
71387;SDS011;59201;59.902;10.520;2023-02-28T00:23:22;6.47;;;2.20;;
71387;SDS011;59201;59.902;10.520;2023-02-28T00:25:48;7.60;;;2.38;;
71387;SDS011;59201;59.902;10.520;2023-02-28T00:28:14;7.00;;;2.03;;
71387;SDS011;59201;59.902;10.520;2023-02-28T00:30:41;5.50;;;1.80;;
71387;SDS011;59201;59.902;10.520;2023-02-28T00:33:07;4.60;;;1.30;;
71387;SDS011;59201;59.902;10.520;2023-02-28T00:35:33;4.20;;;1.30;;
71387;SDS011;59201;59.902;10.520;2023-02-28T00:37:59;4.70;;;1.30;;
71387;SDS011;59201;59.902;10.520;2023-02-28T00:40:25;4.90;;;1.40;;
71387;SDS011;59201;59.902;10.520;2023-02-28T00:42:51;4.63;;;1.33;;
71387;SDS011;59201;59.902;10.520;2023-02-28T00:45:17;4.20;;;1.10;;
71387;SDS011;59201;59.902;10.520;2023-02-28T00:47:44;4.65;;;1.10;;
71387;SDS011;59201;59.902;10.520;2023-02-28T00:50:11;3.35;;;1.00;;
71387;SDS011;59201;59.902;10.520;2023-02-28T00:52:37;2.28;;;0.80;;
71387;SDS011;59201;59.902;10.520;2023-02-28T00:55:04;3.13;;;0.90;;
71387;SDS011;59201;59.902;10.520;2023-02-28T00:57:30;4.60;;;1.10;;
71387;SDS011;59201;59.902;10.520;2023-02-28T00:59:56;4.43;;;1.10;;
71387;SDS011;59201;59.902;10.520;2023-02-28T01:02:22;4.40;;;1.30;;
71387;SDS011;59201;59.902;10.520;2023-02-28T01:04:48;5.00;;;1.20;;
71387;SDS011;59201;59.902;10.520;2023-02-28T01:07:15;4.60;;;1.13;;
71387;SDS011;59201;59.902;10.520;2023-02-28T01:09:41;3.85;;;1.10;;
71387;SDS011;59201;59.902;10.520;2023-02-28T01:12:08;4.00;;;1.05;;
71387;SDS011;59201;59.902;10.520;2023-02-28T01:14:34;4.18;;;1.25;;
71387;SDS011;59201;59.902;10.520;2023-02-28T01:17:00;3.83;;;1.05;;
71387;SDS011;59201;59.902;10.520;2023-02-28T01:19:27;3.67;;;1.17;;
71387;SDS011;59201;59.902;10.520;2023-02-28T01:21:53;4.90;;;1.10;;
71387;SDS011;59201;59.902;10.520;2023-02-28T01:24:19;5.97;;;1.15;;
71387;SDS011;59201;59.902;10.520;2023-02-28T01:26:45;4.18;;;1.00;;
71387;SDS011;59201;59.902;10.520;2023-02-28T01:29:11;5.10;;;1.13;;
71387;SDS011;59201;59.902;10.520;2023-02-28T01:31:37;4.80;;;1.10;;
71387;SDS011;59201;59.902;10.520;2023-02-28T01:34:04;4.30;;;1.00;;
71387;SDS011;59201;59.902;10.520;2023-02-28T01:36:30;6.35;;;1.35;;
71387;SDS011;59201;59.902;10.520;2023-02-28T01:38:56;3.80;;;1.10;;
71387;SDS011;59201;59.902;10.520;2023-02-28T01:41:23;6.82;;;1.15;;
71387;SDS011;59201;59.902;10.520;2023-02-28T01:46:15;4.40;;;1.08;;
71387;SDS011;59201;59.902;10.520;2023-02-28T01:48:51;6.28;;;1.20;;
71387;SDS011;59201;59.902;10.520;2023-02-28T01:51:19;3.95;;;1.00;;
71387;SDS011;59201;59.902;10.520;2023-02-28T01:53:53;4.30;;;0.90;;
71387;SDS011;59201;59.902;10.520;2023-02-28T01:56:22;3.63;;;1.10;;
71387;SDS011;59201;59.902;10.520;2023-02-28T01:58:52;4.40;;;1.20;;
71387;SDS011;59201;59.902;10.520;2023-02-28T02:01:19;3.47;;;1.00;;
71387;SDS011;59201;59.902;10.520;2023-02-28T02:03:48;3.72;;;0.93;;
71387;SDS011;59201;59.902;10.520;2023-02-28T02:06:20;2.97;;;0.90;;
71387;SDS011;59201;59.902;10.520;2023-02-28T02:08:47;2.57;;;0.90;;
71387;SDS011;59201;59.902;10.520;2023-02-28T02:11:13;3.45;;;0.82;;
71387;SDS011;59201;59.902;10.520;2023-02-28T02:18:47;4.22;;;1.20;;
71387;SDS011;59201;59.902;10.520;2023-02-28T02:24:03;4.93;;;1.20;;
71387;SDS011;59201;59.902;10.520;2023-02-28T02:29:08;5.75;;;1.63;;
71387;SDS011;59201;59.902;10.520;2023-02-28T02:36:51;5.05;;;1.38;;
71387;SDS011;59201;59.902;10.520;2023-02-28T02:39:22;4.88;;;1.20;;
71387;SDS011;59201;59.902;10.520;2023-02-28T02:47:06;4.57;;;1.37;;
71387;SDS011;59201;59.902;10.520;2023-02-28T02:49:35;5.20;;;1.08;;
71387;SDS011;59201;59.902;10.520;2023-02-28T02:52:02;4.82;;;1.33;;
71387;SDS011;59201;59.902;10.520;2023-02-28T02:54:36;4.43;;;1.30;;
71387;SDS011;59201;59.902;10.520;2023-02-28T02:57:05;5.10;;;1.40;;
71387;SDS011;59201;59.902;10.520;2023-02-28T02:59:33;4.20;;;1.10;;
71387;SDS011;59201;59.902;10.520;2023-02-28T03:02:01;5.63;;;1.38;;
71387;SDS011;59201;59.902;10.520;2023-02-28T03:04:30;5.18;;;1.30;;
71387;SDS011;59201;59.902;10.520;2023-02-28T03:06:58;4.65;;;1.40;;
71387;SDS011;59201;59.902;10.520;2023-02-28T03:09:24;5.00;;;1.20;;
71387;SDS011;59201;59.902;10.520;2023-02-28T03:11:52;4.13;;;1.20;;
71387;SDS011;59201;59.902;10.520;2023-02-28T03:14:30;3.67;;;1.10;;
71387;SDS011;59201;59.902;10.520;2023-02-28T03:24:25;5.23;;;1.20;;
71387;SDS011;59201;59.902;10.520;2023-02-28T03:26:58;4.40;;;1.15;;
71387;SDS011;59201;59.902;10.520;2023-02-28T03:29:33;4.85;;;1.40;;
71387;SDS011;59201;59.902;10.520;2023-02-28T03:36:59;4.73;;;1.30;;
71387;SDS011;59201;59.902;10.520;2023-02-28T03:39:37;4.75;;;1.30;;
71387;SDS011;59201;59.902;10.520;2023-02-28T03:42:05;5.40;;;1.75;;
71387;SDS011;59201;59.902;10.520;2023-02-28T03:47:12;5.28;;;1.30;;
71387;SDS011;59201;59.902;10.520;2023-02-28T03:49:40;4.23;;;1.00;;
71387;SDS011;59201;59.902;10.520;2023-02-28T03:52:09;3.92;;;0.90;;
71387;SDS011;59201;59.902;10.520;2023-02-28T03:54:41;4.80;;;0.90;;
71387;SDS011;59201;59.902;10.520;2023-02-28T03:57:18;3.10;;;0.90;;
71387;SDS011;59201;59.902;10.520;2023-02-28T03:59:47;3.05;;;0.80;;
71387;SDS011;59201;59.902;10.520;2023-02-28T04:02:15;3.13;;;0.97;;
71387;SDS011;59201;59.902;10.520;2023-02-28T04:04:41;3.95;;;1.08;;
71387;SDS011;59201;59.902;10.520;2023-02-28T04:07:13;3.42;;;1.00;;
71387;SDS011;59201;59.902;10.520;2023-02-28T04:09:39;3.85;;;1.00;;
71387;SDS011;59201;59.902;10.520;2023-02-28T04:12:05;4.35;;;1.05;;
71387;SDS011;59201;59.902;10.520;2023-02-28T04:14:32;4.57;;;1.00;;
71387;SDS011;59201;59.902;10.520;2023-02-28T04:16:58;3.63;;;1.02;;
71387;SDS011;59201;59.902;10.520;2023-02-28T04:19:24;3.97;;;0.90;;
71387;SDS011;59201;59.902;10.520;2023-02-28T04:21:51;4.30;;;1.00;;
71387;SDS011;59201;59.902;10.520;2023-02-28T04:24:18;4.65;;;0.85;;
71387;SDS011;59201;59.902;10.520;2023-02-28T04:26:46;5.80;;;1.20;;
71387;SDS011;59201;59.902;10.520;2023-02-28T04:29:13;5.93;;;1.25;;
71387;SDS011;59201;59.902;10.520;2023-02-28T04:31:39;4.95;;;1.20;;
71387;SDS011;59201;59.902;10.520;2023-02-28T04:34:06;4.65;;;1.15;;
71387;SDS011;59201;59.902;10.520;2023-02-28T04:36:32;4.50;;;1.00;;
71387;SDS011;59201;59.902;10.520;2023-02-28T04:38:58;4.73;;;1.30;;
71387;SDS011;59201;59.902;10.520;2023-02-28T04:41:24;3.50;;;0.93;;
71387;SDS011;59201;59.902;10.520;2023-02-28T04:43:51;3.85;;;0.90;;
71387;SDS011;59201;59.902;10.520;2023-02-28T04:46:18;4.07;;;1.10;;
71387;SDS011;59201;59.902;10.520;2023-02-28T04:48:44;4.25;;;1.08;;
71387;SDS011;59201;59.902;10.520;2023-02-28T04:51:11;3.83;;;1.00;;
71387;SDS011;59201;59.902;10.520;2023-02-28T04:53:38;4.88;;;1.23;;
71387;SDS011;59201;59.902;10.520;2023-02-28T04:56:05;6.00;;;1.80;;
71387;SDS011;59201;59.902;10.520;2023-02-28T04:58:31;6.45;;;2.03;;
71387;SDS011;59201;59.902;10.520;2023-02-28T05:01:01;5.55;;;1.80;;
71387;SDS011;59201;59.902;10.520;2023-02-28T05:03:28;6.70;;;2.20;;
71387;SDS011;59201;59.902;10.520;2023-02-28T05:05:54;7.55;;;2.40;;
71387;SDS011;59201;59.902;10.520;2023-02-28T05:08:20;6.93;;;2.30;;
71387;SDS011;59201;59.902;10.520;2023-02-28T05:10:46;8.77;;;2.70;;
71387;SDS011;59201;59.902;10.520;2023-02-28T05:13:12;6.88;;;2.30;;
71387;SDS011;59201;59.902;10.520;2023-02-28T05:15:38;6.13;;;2.20;;
71387;SDS011;59201;59.902;10.520;2023-02-28T05:18:05;9.15;;;2.70;;
71387;SDS011;59201;59.902;10.520;2023-02-28T05:20:31;6.95;;;2.20;;
71387;SDS011;59201;59.902;10.520;2023-02-28T05:22:57;6.25;;;2.13;;
71387;SDS011;59201;59.902;10.520;2023-02-28T05:25:24;9.73;;;3.05;;
71387;SDS011;59201;59.902;10.520;2023-02-28T05:27:50;9.43;;;2.57;;
71387;SDS011;59201;59.902;10.520;2023-02-28T05:30:16;7.50;;;2.72;;
71387;SDS011;59201;59.902;10.520;2023-02-28T05:32:42;7.85;;;2.00;;
71387;SDS011;59201;59.902;10.520;2023-02-28T05:35:11;8.18;;;2.50;;
71387;SDS011;59201;59.902;10.520;2023-02-28T05:37:38;8.38;;;2.47;;
71387;SDS011;59201;59.902;10.520;2023-02-28T05:40:05;7.93;;;2.30;;
71387;SDS011;59201;59.902;10.520;2023-02-28T05:42:35;7.68;;;3.08;;
71387;SDS011;59201;59.902;10.520;2023-02-28T05:45:01;9.48;;;3.78;;
71387;SDS011;59201;59.902;10.520;2023-02-28T05:47:27;8.02;;;2.63;;
71387;SDS011;59201;59.902;10.520;2023-02-28T05:49:53;9.27;;;2.83;;
71387;SDS011;59201;59.902;10.520;2023-02-28T05:52:19;7.33;;;2.90;;
71387;SDS011;59201;59.902;10.520;2023-02-28T05:54:46;8.70;;;2.90;;
71387;SDS011;59201;59.902;10.520;2023-02-28T05:57:12;8.40;;;2.95;;
71387;SDS011;59201;59.902;10.520;2023-02-28T05:59:39;9.43;;;3.33;;
71387;SDS011;59201;59.902;10.520;2023-02-28T06:02:05;10.00;;;3.15;;
71387;SDS011;59201;59.902;10.520;2023-02-28T06:04:31;8.60;;;2.93;;
71387;SDS011;59201;59.902;10.520;2023-02-28T06:06:57;7.35;;;2.75;;
71387;SDS011;59201;59.902;10.520;2023-02-28T06:09:23;6.30;;;2.05;;
71387;SDS011;59201;59.902;10.520;2023-02-28T06:11:50;5.88;;;1.60;;
71387;SDS011;59201;59.902;10.520;2023-02-28T06:14:17;7.35;;;1.77;;
71387;SDS011;59201;59.902;10.520;2023-02-28T06:16:43;5.43;;;1.63;;
71387;SDS011;59201;59.902;10.520;2023-02-28T06:19:10;5.90;;;1.55;;
71387;SDS011;59201;59.902;10.520;2023-02-28T06:21:36;5.53;;;1.45;;
71387;SDS011;59201;59.902;10.520;2023-02-28T06:24:03;6.70;;;1.90;;
71387;SDS011;59201;59.902;10.520;2023-02-28T06:26:29;7.40;;;2.22;;
71387;SDS011;59201;59.902;10.520;2023-02-28T06:28:56;8.10;;;2.83;;
71387;SDS011;59201;59.902;10.520;2023-02-28T06:31:22;6.93;;;2.00;;
71387;SDS011;59201;59.902;10.520;2023-02-28T06:33:50;6.22;;;2.00;;
71387;SDS011;59201;59.902;10.520;2023-02-28T06:36:17;7.30;;;2.42;;
71387;SDS011;59201;59.902;10.520;2023-02-28T06:38:43;6.85;;;2.00;;
71387;SDS011;59201;59.902;10.520;2023-02-28T06:41:09;12.23;;;4.03;;
71387;SDS011;59201;59.902;10.520;2023-02-28T06:43:37;9.32;;;3.20;;
71387;SDS011;59201;59.902;10.520;2023-02-28T06:46:04;11.40;;;3.30;;
71387;SDS011;59201;59.902;10.520;2023-02-28T06:48:30;9.13;;;2.65;;
71387;SDS011;59201;59.902;10.520;2023-02-28T06:51:06;7.15;;;1.70;;
71387;SDS011;59201;59.902;10.520;2023-02-28T06:53:33;4.57;;;1.37;;
71387;SDS011;59201;59.902;10.520;2023-02-28T06:55:59;5.55;;;1.95;;
71387;SDS011;59201;59.902;10.520;2023-02-28T06:58:28;10.25;;;3.60;;
71387;SDS011;59201;59.902;10.520;2023-02-28T07:00:55;9.63;;;3.10;;
71387;SDS011;59201;59.902;10.520;2023-02-28T07:03:21;8.50;;;3.22;;
71387;SDS011;59201;59.902;10.520;2023-02-28T07:05:48;8.33;;;2.63;;
71387;SDS011;59201;59.902;10.520;2023-02-28T07:08:14;8.55;;;2.50;;
71387;SDS011;59201;59.902;10.520;2023-02-28T07:10:40;8.23;;;2.47;;
71387;SDS011;59201;59.902;10.520;2023-02-28T07:13:07;6.90;;;2.45;;
71387;SDS011;59201;59.902;10.520;2023-02-28T07:15:34;6.47;;;1.98;;
71387;SDS011;59201;59.902;10.520;2023-02-28T07:18:00;7.50;;;2.37;;
71387;SDS011;59201;59.902;10.520;2023-02-28T07:20:26;7.80;;;2.42;;
71387;SDS011;59201;59.902;10.520;2023-02-28T07:22:53;9.15;;;2.70;;
71387;SDS011;59201;59.902;10.520;2023-02-28T07:25:25;8.23;;;2.75;;
71387;SDS011;59201;59.902;10.520;2023-02-28T07:27:52;11.52;;;2.70;;
71387;SDS011;59201;59.902;10.520;2023-02-28T07:30:18;7.50;;;2.40;;
71387;SDS011;59201;59.902;10.520;2023-02-28T07:32:44;11.90;;;2.25;;
71387;SDS011;59201;59.902;10.520;2023-02-28T07:35:10;6.88;;;2.17;;
71387;SDS011;59201;59.902;10.520;2023-02-28T07:37:37;7.45;;;1.85;;
71387;SDS011;59201;59.902;10.520;2023-02-28T07:40:04;7.22;;;2.15;;
71387;SDS011;59201;59.902;10.520;2023-02-28T07:42:32;6.93;;;2.30;;
71387;SDS011;59201;59.902;10.520;2023-02-28T07:44:58;6.22;;;2.10;;
71387;SDS011;59201;59.902;10.520;2023-02-28T07:47:24;6.85;;;2.28;;
71387;SDS011;59201;59.902;10.520;2023-02-28T07:49:50;5.10;;;1.65;;
71387;SDS011;59201;59.902;10.520;2023-02-28T07:52:16;5.28;;;1.73;;
71387;SDS011;59201;59.902;10.520;2023-02-28T07:54:42;10.83;;;1.77;;
71387;SDS011;59201;59.902;10.520;2023-02-28T07:57:08;5.30;;;1.60;;
71387;SDS011;59201;59.902;10.520;2023-02-28T07:59:35;6.65;;;1.55;;
71387;SDS011;59201;59.902;10.520;2023-02-28T08:02:01;4.65;;;1.30;;
71387;SDS011;59201;59.902;10.520;2023-02-28T08:04:27;4.57;;;1.20;;
71387;SDS011;59201;59.902;10.520;2023-02-28T08:06:54;4.90;;;1.60;;
71387;SDS011;59201;59.902;10.520;2023-02-28T08:09:21;5.38;;;1.50;;
71387;SDS011;59201;59.902;10.520;2023-02-28T08:11:47;6.15;;;1.40;;
71387;SDS011;59201;59.902;10.520;2023-02-28T08:14:13;4.85;;;1.23;;
71387;SDS011;59201;59.902;10.520;2023-02-28T08:16:40;5.03;;;1.20;;
71387;SDS011;59201;59.902;10.520;2023-02-28T08:19:07;5.03;;;1.50;;
71387;SDS011;59201;59.902;10.520;2023-02-28T08:21:34;5.22;;;1.40;;
71387;SDS011;59201;59.902;10.520;2023-02-28T08:24:00;5.43;;;1.33;;
71387;SDS011;59201;59.902;10.520;2023-02-28T08:26:26;4.55;;;1.42;;
71387;SDS011;59201;59.902;10.520;2023-02-28T08:28:52;4.85;;;1.40;;
71387;SDS011;59201;59.902;10.520;2023-02-28T08:31:18;4.57;;;1.37;;
71387;SDS011;59201;59.902;10.520;2023-02-28T08:33:44;4.63;;;1.27;;
71387;SDS011;59201;59.902;10.520;2023-02-28T08:36:12;5.85;;;1.63;;
71387;SDS011;59201;59.902;10.520;2023-02-28T08:38:38;5.28;;;1.90;;
71387;SDS011;59201;59.902;10.520;2023-02-28T08:41:05;7.25;;;2.20;;
71387;SDS011;59201;59.902;10.520;2023-02-28T08:43:32;13.67;;;2.63;;
71387;SDS011;59201;59.902;10.520;2023-02-28T08:45:59;9.10;;;2.40;;
71387;SDS011;59201;59.902;10.520;2023-02-28T08:48:26;8.65;;;2.70;;
71387;SDS011;59201;59.902;10.520;2023-02-28T08:50:56;9.10;;;2.50;;
71387;SDS011;59201;59.902;10.520;2023-02-28T08:53:23;3.97;;;1.45;;
71387;SDS011;59201;59.902;10.520;2023-02-28T08:55:59;7.93;;;3.00;;
71387;SDS011;59201;59.902;10.520;2023-02-28T08:58:25;7.75;;;2.60;;
71387;SDS011;59201;59.902;10.520;2023-02-28T09:00:52;7.95;;;2.10;;
71387;SDS011;59201;59.902;10.520;2023-02-28T09:03:18;9.27;;;2.25;;
71387;SDS011;59201;59.902;10.520;2023-02-28T09:05:57;9.63;;;2.65;;
71387;SDS011;59201;59.902;10.520;2023-02-28T09:08:24;10.67;;;2.63;;
71387;SDS011;59201;59.902;10.520;2023-02-28T09:10:50;7.78;;;2.58;;
71387;SDS011;59201;59.902;10.520;2023-02-28T09:13:17;9.68;;;3.08;;
71387;SDS011;59201;59.902;10.520;2023-02-28T09:15:43;8.98;;;2.83;;
71387;SDS011;59201;59.902;10.520;2023-02-28T09:18:10;8.32;;;3.22;;
71387;SDS011;59201;59.902;10.520;2023-02-28T09:20:40;7.50;;;2.33;;
71387;SDS011;59201;59.902;10.520;2023-02-28T09:23:07;8.48;;;2.42;;
71387;SDS011;59201;59.902;10.520;2023-02-28T09:25:33;8.95;;;2.67;;
71387;SDS011;59201;59.902;10.520;2023-02-28T09:27:59;11.30;;;2.75;;
71387;SDS011;59201;59.902;10.520;2023-02-28T09:30:25;8.82;;;2.60;;
71387;SDS011;59201;59.902;10.520;2023-02-28T09:32:52;6.87;;;2.47;;
71387;SDS011;59201;59.902;10.520;2023-02-28T09:35:19;9.10;;;2.97;;
71387;SDS011;59201;59.902;10.520;2023-02-28T09:37:46;7.82;;;2.40;;
71387;SDS011;59201;59.902;10.520;2023-02-28T09:40:12;2.10;;;0.75;;
71387;SDS011;59201;59.902;10.520;2023-02-28T09:42:39;7.45;;;1.95;;
71387;SDS011;59201;59.902;10.520;2023-02-28T09:45:21;5.90;;;2.10;;
71387;SDS011;59201;59.902;10.520;2023-02-28T09:47:48;10.25;;;3.33;;
71387;SDS011;59201;59.902;10.520;2023-02-28T09:52:54;7.28;;;1.83;;
71387;SDS011;59201;59.902;10.520;2023-02-28T09:57:47;7.00;;;2.07;;
71387;SDS011;59201;59.902;10.520;2023-02-28T10:05:21;9.10;;;2.17;;
71387;SDS011;59201;59.902;10.520;2023-02-28T10:07:58;7.93;;;1.70;;
71387;SDS011;59201;59.902;10.520;2023-02-28T10:10:35;4.13;;;1.13;;
71387;SDS011;59201;59.902;10.520;2023-02-28T10:13:04;7.95;;;1.65;;
71387;SDS011;59201;59.902;10.520;2023-02-28T10:15:31;8.95;;;2.00;;
71387;SDS011;59201;59.902;10.520;2023-02-28T10:18:05;5.25;;;1.40;;
71387;SDS011;59201;59.902;10.520;2023-02-28T10:20:33;6.72;;;1.58;;
71387;SDS011;59201;59.902;10.520;2023-02-28T10:23:43;5.73;;;1.30;;
71387;SDS011;59201;59.902;10.520;2023-02-28T10:25:53;7.20;;;1.42;;
71387;SDS011;59201;59.902;10.520;2023-02-28T10:28:20;4.38;;;1.23;;
71387;SDS011;59201;59.902;10.520;2023-02-28T10:30:47;8.50;;;1.83;;
71387;SDS011;59201;59.902;10.520;2023-02-28T10:35:44;8.67;;;2.73;;
71387;SDS011;59201;59.902;10.520;2023-02-28T10:38:14;6.47;;;1.90;;
71387;SDS011;59201;59.902;10.520;2023-02-28T10:40:41;6.22;;;1.98;;
71387;SDS011;59201;59.902;10.520;2023-02-28T10:45:39;9.63;;;2.25;;
71387;SDS011;59201;59.902;10.520;2023-02-28T10:58:22;8.00;;;2.50;;
71387;SDS011;59201;59.902;10.520;2023-02-28T11:00:49;9.10;;;2.50;;
71387;SDS011;59201;59.902;10.520;2023-02-28T11:03:27;8.93;;;2.42;;
71387;SDS011;59201;59.902;10.520;2023-02-28T11:05:54;8.80;;;2.67;;
71387;SDS011;59201;59.902;10.520;2023-02-28T11:08:20;7.93;;;2.80;;
71387;SDS011;59201;59.902;10.520;2023-02-28T11:10:48;9.68;;;2.55;;
71387;SDS011;59201;59.902;10.520;2023-02-28T11:13:27;10.23;;;2.37;;
71387;SDS011;59201;59.902;10.520;2023-02-28T11:15:55;5.45;;;2.10;;
71387;SDS011;59201;59.902;10.520;2023-02-28T11:18:27;9.93;;;2.60;;
71387;SDS011;59201;59.902;10.520;2023-02-28T11:20:55;7.28;;;2.58;;
71387;SDS011;59201;59.902;10.520;2023-02-28T11:23:23;6.85;;;2.10;;
71387;SDS011;59201;59.902;10.520;2023-02-28T11:25:51;6.87;;;2.23;;
71387;SDS011;59201;59.902;10.520;2023-02-28T11:28:29;6.18;;;1.80;;
71387;SDS011;59201;59.902;10.520;2023-02-28T11:33:44;7.60;;;2.00;;
71387;SDS011;59201;59.902;10.520;2023-02-28T11:38:37;10.23;;;2.60;;
71387;SDS011;59201;59.902;10.520;2023-02-28T11:41:06;10.80;;;2.45;;
71387;SDS011;59201;59.902;10.520;2023-02-28T11:43:45;6.22;;;2.20;;
71387;SDS011;59201;59.902;10.520;2023-02-28T11:46:15;7.65;;;2.58;;
71387;SDS011;59201;59.902;10.520;2023-02-28T11:48:51;6.90;;;2.88;;
71387;SDS011;59201;59.902;10.520;2023-02-28T11:51:41;8.83;;;2.40;;
71387;SDS011;59201;59.902;10.520;2023-02-28T11:54:25;5.95;;;2.00;;
71387;SDS011;59201;59.902;10.520;2023-02-28T11:57:00;7.50;;;2.35;;
71387;SDS011;59201;59.902;10.520;2023-02-28T11:59:34;8.00;;;2.35;;
71387;SDS011;59201;59.902;10.520;2023-02-28T12:12:48;9.27;;;2.40;;
71387;SDS011;59201;59.902;10.520;2023-02-28T12:18:00;5.40;;;1.30;;
71387;SDS011;59201;59.902;10.520;2023-02-28T12:20:33;5.28;;;0.98;;
71387;SDS011;59201;59.902;10.520;2023-02-28T12:23:04;4.60;;;1.08;;
71387;SDS011;59201;59.902;10.520;2023-02-28T12:28:15;3.47;;;0.90;;
71387;SDS011;59201;59.902;10.520;2023-02-28T12:30:47;2.57;;;0.80;;
71387;SDS011;59201;59.902;10.520;2023-02-28T12:33:16;2.25;;;0.70;;
71387;SDS011;59201;59.902;10.520;2023-02-28T12:35:47;6.60;;;0.90;;
71387;SDS011;59201;59.902;10.520;2023-02-28T12:38:22;3.05;;;0.98;;
71387;SDS011;59201;59.902;10.520;2023-02-28T12:41:05;2.60;;;0.75;;
71387;SDS011;59201;59.902;10.520;2023-02-28T12:43:36;2.13;;;0.70;;
71387;SDS011;59201;59.902;10.520;2023-02-28T12:48:50;2.90;;;0.75;;
71387;SDS011;59201;59.902;10.520;2023-02-28T12:51:18;2.22;;;0.60;;
71387;SDS011;59201;59.902;10.520;2023-02-28T12:53:58;1.50;;;0.60;;
71387;SDS011;59201;59.902;10.520;2023-02-28T12:59:09;2.85;;;0.80;;
71387;SDS011;59201;59.902;10.520;2023-02-28T13:01:47;2.22;;;0.60;;
71387;SDS011;59201;59.902;10.520;2023-02-28T13:09:22;2.23;;;0.70;;
71387;SDS011;59201;59.902;10.520;2023-02-28T13:11:49;2.00;;;0.70;;
71387;SDS011;59201;59.902;10.520;2023-02-28T13:14:28;1.92;;;0.70;;
71387;SDS011;59201;59.902;10.520;2023-02-28T13:19:28;4.50;;;0.80;;
71387;SDS011;59201;59.902;10.520;2023-02-28T13:21:55;1.73;;;0.70;;
71387;SDS011;59201;59.902;10.520;2023-02-28T13:24:38;2.17;;;0.70;;
71387;SDS011;59201;59.902;10.520;2023-02-28T13:29:38;1.98;;;0.60;;
71387;SDS011;59201;59.902;10.520;2023-02-28T13:34:32;3.37;;;0.70;;
71387;SDS011;59201;59.902;10.520;2023-02-28T13:39:45;2.35;;;0.70;;
71387;SDS011;59201;59.902;10.520;2023-02-28T13:47:38;4.77;;;0.80;;
71387;SDS011;59201;59.902;10.520;2023-02-28T13:55:45;2.25;;;0.70;;
71387;SDS011;59201;59.902;10.520;2023-02-28T14:06:25;3.13;;;0.73;;
71387;SDS011;59201;59.902;10.520;2023-02-28T14:13:58;3.87;;;0.80;;
71387;SDS011;59201;59.902;10.520;2023-02-28T14:16:25;1.98;;;0.70;;
71387;SDS011;59201;59.902;10.520;2023-02-28T14:37:13;6.03;;;1.50;;
71387;SDS011;59201;59.902;10.520;2023-02-28T14:39:41;5.73;;;1.50;;
71387;SDS011;59201;59.902;10.520;2023-02-28T14:44:54;6.55;;;1.70;;
71387;SDS011;59201;59.902;10.520;2023-02-28T14:47:21;5.55;;;1.42;;
71387;SDS011;59201;59.902;10.520;2023-02-28T14:49:49;8.75;;;2.50;;
71387;SDS011;59201;59.902;10.520;2023-02-28T14:52:17;8.53;;;2.13;;
71387;SDS011;59201;59.902;10.520;2023-02-28T14:54:44;5.75;;;1.60;;
71387;SDS011;59201;59.902;10.520;2023-02-28T15:00:17;7.07;;;1.40;;
71387;SDS011;59201;59.902;10.520;2023-02-28T15:02:46;4.95;;;1.30;;
71387;SDS011;59201;59.902;10.520;2023-02-28T15:07:40;2.42;;;0.80;;
71387;SDS011;59201;59.902;10.520;2023-02-28T15:10:17;4.65;;;0.80;;
71387;SDS011;59201;59.902;10.520;2023-02-28T15:15:27;6.30;;;0.98;;
71387;SDS011;59201;59.902;10.520;2023-02-28T15:17:55;3.73;;;0.90;;
71387;SDS011;59201;59.902;10.520;2023-02-28T15:20:22;2.95;;;0.80;;
71387;SDS011;59201;59.902;10.520;2023-02-28T15:22:49;1.80;;;0.57;;
71387;SDS011;59201;59.902;10.520;2023-02-28T15:25:18;2.72;;;0.82;;
71387;SDS011;59201;59.902;10.520;2023-02-28T15:27:46;2.20;;;0.70;;
71387;SDS011;59201;59.902;10.520;2023-02-28T15:30:15;1.63;;;0.50;;
71387;SDS011;59201;59.902;10.520;2023-02-28T15:32:42;1.23;;;0.50;;
71387;SDS011;59201;59.902;10.520;2023-02-28T15:35:28;2.50;;;0.68;;
71387;SDS011;59201;59.902;10.520;2023-02-28T15:37:56;3.83;;;1.10;;
71387;SDS011;59201;59.902;10.520;2023-02-28T15:48:20;5.03;;;1.02;;
71387;SDS011;59201;59.902;10.520;2023-02-28T15:50:47;5.70;;;1.15;;
71387;SDS011;59201;59.902;10.520;2023-02-28T15:53:16;5.03;;;1.00;;
71387;SDS011;59201;59.902;10.520;2023-02-28T15:55:43;8.97;;;1.37;;
71387;SDS011;59201;59.902;10.520;2023-02-28T15:58:10;7.13;;;1.25;;
71387;SDS011;59201;59.902;10.520;2023-02-28T16:00:38;7.05;;;1.13;;
71387;SDS011;59201;59.902;10.520;2023-02-28T16:06:07;4.47;;;1.10;;
71387;SDS011;59201;59.902;10.520;2023-02-28T16:08:33;6.70;;;1.00;;
71387;SDS011;59201;59.902;10.520;2023-02-28T16:10:59;5.85;;;1.02;;
71387;SDS011;59201;59.902;10.520;2023-02-28T16:13:25;9.68;;;1.38;;
71387;SDS011;59201;59.902;10.520;2023-02-28T16:15:52;8.63;;;1.40;;
71387;SDS011;59201;59.902;10.520;2023-02-28T16:18:19;9.10;;;1.35;;
71387;SDS011;59201;59.902;10.520;2023-02-28T16:20:45;4.77;;;1.30;;
71387;SDS011;59201;59.902;10.520;2023-02-28T16:23:11;7.25;;;1.70;;
71387;SDS011;59201;59.902;10.520;2023-02-28T16:25:41;5.60;;;1.30;;
71387;SDS011;59201;59.902;10.520;2023-02-28T16:28:09;5.93;;;1.10;;
71387;SDS011;59201;59.902;10.520;2023-02-28T16:30:37;4.55;;;0.90;;
71387;SDS011;59201;59.902;10.520;2023-02-28T16:33:03;5.33;;;1.20;;
71387;SDS011;59201;59.902;10.520;2023-02-28T16:35:29;5.90;;;1.65;;
71387;SDS011;59201;59.902;10.520;2023-02-28T16:37:55;7.50;;;1.70;;
71387;SDS011;59201;59.902;10.520;2023-02-28T16:40:22;6.60;;;1.70;;
71387;SDS011;59201;59.902;10.520;2023-02-28T16:42:50;7.93;;;1.63;;
71387;SDS011;59201;59.902;10.520;2023-02-28T16:45:18;8.27;;;1.87;;
71387;SDS011;59201;59.902;10.520;2023-02-28T16:47:44;5.93;;;2.15;;
71387;SDS011;59201;59.902;10.520;2023-02-28T16:50:18;6.65;;;1.85;;
71387;SDS011;59201;59.902;10.520;2023-02-28T16:52:46;8.63;;;2.22;;
71387;SDS011;59201;59.902;10.520;2023-02-28T16:55:13;6.68;;;1.33;;
71387;SDS011;59201;59.902;10.520;2023-02-28T16:57:39;7.93;;;1.40;;
71387;SDS011;59201;59.902;10.520;2023-02-28T17:00:06;4.75;;;1.08;;
71387;SDS011;59201;59.902;10.520;2023-02-28T17:02:33;7.47;;;1.20;;
71387;SDS011;59201;59.902;10.520;2023-02-28T17:04:59;6.32;;;1.40;;
71387;SDS011;59201;59.902;10.520;2023-02-28T17:07:25;7.38;;;1.27;;
71387;SDS011;59201;59.902;10.520;2023-02-28T17:09:51;6.90;;;1.50;;
71387;SDS011;59201;59.902;10.520;2023-02-28T17:12:17;5.45;;;1.35;;
71387;SDS011;59201;59.902;10.520;2023-02-28T17:14:43;6.32;;;1.50;;
71387;SDS011;59201;59.902;10.520;2023-02-28T17:17:14;6.85;;;2.00;;
71387;SDS011;59201;59.902;10.520;2023-02-28T17:19:41;6.40;;;1.60;;
71387;SDS011;59201;59.902;10.520;2023-02-28T17:22:09;6.73;;;1.70;;
71387;SDS011;59201;59.902;10.520;2023-02-28T17:24:35;6.43;;;1.90;;
71387;SDS011;59201;59.902;10.520;2023-02-28T17:27:01;6.78;;;1.67;;
71387;SDS011;59201;59.902;10.520;2023-02-28T17:29:28;8.65;;;2.00;;